Kohju — H3XI — position and weather

sailwx.info

Track history (hours):
 
Tides and Currents Weather Stations Pressure Air Temp Water Temp Dewpoint Dewpoint Depression Visibility Wind Speed Wind Dir Waves Ship Positions

Kohju

Last reported at 2016-Jun-22 19:33 UTC. Time now 2016-Jun-28 07:55 UTC.
Position N 23°56' E 119°56'.

Length 289 m; draft 10.3 m.

Type: Cargo ship. MMSI: 357349000.

Date/timePositionNaut miles runAvg speedWind from/ knotsBaromVisibWave heightAir tempDewpointWater temp
2016-Jun-22 19:33N 23°56' E 119°56'1413.5
2016-Jun-22 18:32N 24°08' E 120°04'1312.7
2016-Jun-22 17:31N 24°19' E 120°12'2512.6
2016-Jun-22 15:33N 24°40' E 120°26'  
2016-Jun-20 00:30N 36°42' E 123°55'1111.9
2016-Jun-19 23:33N 36°53' E 123°51'1212.4
2016-Jun-19 22:33N 37°02' E 123°41'1211.9
2016-Jun-19 21:33N 37°11' E 123°31'1211.9
2016-Jun-19 20:33N 37°20' E 123°21'1212.2
2016-Jun-19 19:33N 37°29' E 123°11'1312.9
2016-Jun-19 18:33N 37°36' E 122°57'1413.7
2016-Jun-19 17:34N 37°42' E 122°42'1413.7
2016-Jun-19 16:33N 37°45' E 122°25'1414.3
2016-Jun-19 15:33N 37°46' E 122°07'1513.9
2016-Jun-19 14:29N 37°46' E 121°48'1313.6
2016-Jun-19 13:32N 37°43' E 121°32'10 9.7
2016-Jun-19 12:30N 37°35' E 121°25'  
2016-Jun-16 10:24N 37°35' E 121°25'4 4.8
2016-Jun-16 09:32N 37°38' E 121°28'3 3.4
2016-Jun-16 08:32N 37°42' E 121°27'6 6.0
2016-Jun-16 07:33N 37°47' E 121°24'8 8.0
2016-Jun-16 06:33N 37°53' E 121°18'1313.5
2016-Jun-16 05:33N 37°57' E 121°01'1413.8
2016-Jun-16 04:33N 38°00' E 120°44'1313.3
2016-Jun-16 03:33N 38°03' E 120°28'1212.3
2016-Jun-16 02:34N 37°58' E 120°14'1413.6
2016-Jun-16 01:33N 37°44' E 120°11'8 8.0
2016-Jun-16 00:33N 37°39' E 120°18'0 0.4
2016-Jun-15 23:33N 37°39' E 120°18'0 0.0
2016-Jun-15 22:33N 37°39' E 120°18'0 0.0
2016-Jun-15 21:24N 37°39' E 120°18'0 0.0
2016-Jun-15 20:33N 37°39' E 120°18'0 0.0
2016-Jun-15 19:33N 37°39' E 120°18'0 0.0
2016-Jun-15 18:27N 37°39' E 120°18'0 0.0
2016-Jun-15 17:30N 37°39' E 120°18'0 0.0
2016-Jun-15 16:33N 37°39' E 120°18'0 0.0
2016-Jun-15 15:33N 37°39' E 120°18'0 0.0
2016-Jun-15 14:34N 37°39' E 120°18'0 0.0
2016-Jun-15 13:30N 37°39' E 120°18'0 0.0
2016-Jun-15 12:33N 37°39' E 120°18'0 0.0
2016-Jun-15 11:33N 37°39' E 120°18'0 0.0
2016-Jun-15 10:27N 37°39' E 120°18'0 0.0
2016-Jun-15 09:33N 37°39' E 120°18'0 0.0
2016-Jun-15 08:27N 37°39' E 120°18'0 0.0
2016-Jun-15 07:33N 37°39' E 120°18'0 0.0
2016-Jun-15 06:30N 37°39' E 120°18'0 0.0
2016-Jun-15 05:33N 37°39' E 120°18'0 0.0
2016-Jun-15 04:33N 37°39' E 120°18'0 0.0
2016-Jun-15 03:33N 37°39' E 120°18'0 0.0
2016-Jun-15 02:30N 37°39' E 120°18'0 0.0
2016-Jun-15 01:33N 37°39' E 120°18'0 0.0
2016-Jun-15 00:33N 37°39' E 120°18'0 0.0
2016-Jun-14 23:33N 37°39' E 120°18'0 0.0
2016-Jun-14 22:33N 37°39' E 120°18'0 0.0
2016-Jun-14 21:33N 37°39' E 120°18'0 0.0
2016-Jun-14 20:33N 37°39' E 120°18'0 0.0
2016-Jun-14 19:33N 37°39' E 120°18'0 0.0
2016-Jun-14 18:33N 37°39' E 120°18'0 0.0
2016-Jun-14 17:30N 37°39' E 120°18'0 0.0
2016-Jun-14 16:30N 37°39' E 120°18'0 0.0
2016-Jun-14 15:30N 37°39' E 120°18'0 0.0
2016-Jun-14 14:33N 37°39' E 120°18'0 0.0
2016-Jun-14 13:33N 37°39' E 120°18'0 0.0
2016-Jun-14 12:30N 37°39' E 120°18'0 0.0
2016-Jun-14 11:27N 37°39' E 120°18'0 0.0
2016-Jun-14 10:33N 37°39' E 120°18'0 0.0
2016-Jun-14 09:33N 37°39' E 120°18'0 0.0
2016-Jun-14 08:33N 37°39' E 120°18'0 0.0
2016-Jun-14 07:33N 37°39' E 120°18'0 0.0
2016-Jun-14 04:33N 37°39' E 120°18'0 0.0
2016-Jun-14 03:30N 37°39' E 120°18'0 0.0
2016-Jun-14 02:34N 37°39' E 120°18'0 0.0
2016-Jun-14 01:30N 37°39' E 120°18'0 0.0
2016-Jun-14 00:33N 37°39' E 120°18'0 0.0
2016-Jun-13 23:33N 37°39' E 120°18'0 0.0
2016-Jun-13 22:33N 37°39' E 120°18'0 0.0
2016-Jun-13 21:33N 37°39' E 120°18'0 0.0
2016-Jun-13 20:21N 37°39' E 120°18'0 0.0
2016-Jun-13 19:33N 37°39' E 120°18'0 0.0
2016-Jun-13 18:21N 37°39' E 120°18'0 0.0
2016-Jun-13 15:33N 37°39' E 120°18'0 0.0
2016-Jun-13 14:30N 37°39' E 120°18'0 0.0
2016-Jun-13 13:27N 37°39' E 120°18'0 0.0
2016-Jun-13 12:18N 37°39' E 120°18'0 0.0
2016-Jun-13 11:21N 37°39' E 120°18'0 0.0
2016-Jun-13 10:33N 37°39' E 120°18'0 0.0
2016-Jun-13 09:30N 37°39' E 120°18'0 0.0
2016-Jun-13 08:18N 37°39' E 120°18'0 0.0
2016-Jun-13 07:21N 37°39' E 120°18'0 0.0
2016-Jun-13 06:30N 37°39' E 120°18'0 0.0
2016-Jun-13 05:33N 37°39' E 120°18'0 0.0
2016-Jun-13 04:33N 37°39' E 120°18'0 0.0
2016-Jun-13 03:33N 37°39' E 120°18'0 0.0
2016-Jun-13 02:33N 37°39' E 120°18'0 0.0
2016-Jun-13 01:30N 37°39' E 120°18'0 0.0
2016-Jun-13 00:33N 37°39' E 120°18'0 0.0
2016-Jun-12 23:30N 37°39' E 120°18'0 0.0
2016-Jun-12 22:27N 37°39' E 120°18'0 0.0
2016-Jun-12 21:30N 37°39' E 120°18'0 0.0
2016-Jun-12 20:33N 37°39' E 120°18'  
Track history (hours):
 
Tides and Currents Weather Stations Pressure Air Temp Water Temp Dewpoint Dewpoint Depression Visibility Wind Speed Wind Dir Waves Ship Positions

Kohju

Last reported at 2016-Jun-22 19:33 UTC. Time now 2016-Jun-28 07:55 UTC.
Position N 23°56' E 119°56'.

Length 289 m; draft 10.3 m.

Type: Cargo ship. MMSI: 357349000.

Date/timePositionNaut miles runAvg speedWind from/ knotsBaromVisibWave heightAir tempDewpointWater temp
2016-Jun-22 19:33N 23°56' E 119°56'1413.5
2016-Jun-22 18:32N 24°08' E 120°04'1312.7
2016-Jun-22 17:31N 24°19' E 120°12'2512.6
2016-Jun-22 15:33N 24°40' E 120°26'  
2016-Jun-20 00:30N 36°42' E 123°55'1111.9
2016-Jun-19 23:33N 36°53' E 123°51'1212.4
2016-Jun-19 22:33N 37°02' E 123°41'1211.9
2016-Jun-19 21:33N 37°11' E 123°31'1211.9
2016-Jun-19 20:33N 37°20' E 123°21'1212.2
2016-Jun-19 19:33N 37°29' E 123°11'1312.9
2016-Jun-19 18:33N 37°36' E 122°57'1413.7
2016-Jun-19 17:34N 37°42' E 122°42'1413.7
2016-Jun-19 16:33N 37°45' E 122°25'1414.3
2016-Jun-19 15:33N 37°46' E 122°07'1513.9
2016-Jun-19 14:29N 37°46' E 121°48'1313.6
2016-Jun-19 13:32N 37°43' E 121°32'10 9.7
2016-Jun-19 12:30N 37°35' E 121°25'  
2016-Jun-16 10:24N 37°35' E 121°25'4 4.8
2016-Jun-16 09:32N 37°38' E 121°28'3 3.4
2016-Jun-16 08:32N 37°42' E 121°27'6 6.0
2016-Jun-16 07:33N 37°47' E 121°24'8 8.0
2016-Jun-16 06:33N 37°53' E 121°18'1313.5
2016-Jun-16 05:33N 37°57' E 121°01'1413.8
2016-Jun-16 04:33N 38°00' E 120°44'1313.3
2016-Jun-16 03:33N 38°03' E 120°28'1212.3
2016-Jun-16 02:34N 37°58' E 120°14'1413.6
2016-Jun-16 01:33N 37°44' E 120°11'8 8.0
2016-Jun-16 00:33N 37°39' E 120°18'0 0.4
2016-Jun-15 23:33N 37°39' E 120°18'0 0.0
2016-Jun-15 22:33N 37°39' E 120°18'0 0.0
2016-Jun-15 21:24N 37°39' E 120°18'0 0.0
2016-Jun-15 20:33N 37°39' E 120°18'0 0.0
2016-Jun-15 19:33N 37°39' E 120°18'0 0.0
2016-Jun-15 18:27N 37°39' E 120°18'0 0.0
2016-Jun-15 17:30N 37°39' E 120°18'0 0.0
2016-Jun-15 16:33N 37°39' E 120°18'0 0.0
2016-Jun-15 15:33N 37°39' E 120°18'0 0.0
2016-Jun-15 14:34N 37°39' E 120°18'0 0.0
2016-Jun-15 13:30N 37°39' E 120°18'0 0.0
2016-Jun-15 12:33N 37°39' E 120°18'0 0.0
2016-Jun-15 11:33N 37°39' E 120°18'0 0.0
2016-Jun-15 10:27N 37°39' E 120°18'0 0.0
2016-Jun-15 09:33N 37°39' E 120°18'0 0.0
2016-Jun-15 08:27N 37°39' E 120°18'0 0.0
2016-Jun-15 07:33N 37°39' E 120°18'0 0.0
2016-Jun-15 06:30N 37°39' E 120°18'0 0.0
2016-Jun-15 05:33N 37°39' E 120°18'0 0.0
2016-Jun-15 04:33N 37°39' E 120°18'0 0.0
2016-Jun-15 03:33N 37°39' E 120°18'0 0.0
2016-Jun-15 02:30N 37°39' E 120°18'0 0.0
2016-Jun-15 01:33N 37°39' E 120°18'0 0.0
2016-Jun-15 00:33N 37°39' E 120°18'0 0.0
2016-Jun-14 23:33N 37°39' E 120°18'0 0.0
2016-Jun-14 22:33N 37°39' E 120°18'0 0.0
2016-Jun-14 21:33N 37°39' E 120°18'0 0.0
2016-Jun-14 20:33N 37°39' E 120°18'0 0.0
2016-Jun-14 19:33N 37°39' E 120°18'0 0.0
2016-Jun-14 18:33N 37°39' E 120°18'0 0.0
2016-Jun-14 17:30N 37°39' E 120°18'0 0.0
2016-Jun-14 16:30N 37°39' E 120°18'0 0.0
2016-Jun-14 15:30N 37°39' E 120°18'0 0.0
2016-Jun-14 14:33N 37°39' E 120°18'0 0.0
2016-Jun-14 13:33N 37°39' E 120°18'0 0.0
2016-Jun-14 12:30N 37°39' E 120°18'0 0.0
2016-Jun-14 11:27N 37°39' E 120°18'0 0.0
2016-Jun-14 10:33N 37°39' E 120°18'0 0.0
2016-Jun-14 09:33N 37°39' E 120°18'0 0.0
2016-Jun-14 08:33N 37°39' E 120°18'0 0.0
2016-Jun-14 07:33N 37°39' E 120°18'0 0.0
2016-Jun-14 04:33N 37°39' E 120°18'0 0.0
2016-Jun-14 03:30N 37°39' E 120°18'0 0.0
2016-Jun-14 02:34N 37°39' E 120°18'0 0.0
2016-Jun-14 01:30N 37°39' E 120°18'0 0.0
2016-Jun-14 00:33N 37°39' E 120°18'0 0.0
2016-Jun-13 23:33N 37°39' E 120°18'0 0.0
2016-Jun-13 22:33N 37°39' E 120°18'0 0.0
2016-Jun-13 21:33N 37°39' E 120°18'0 0.0
2016-Jun-13 20:21N 37°39' E 120°18'0 0.0
2016-Jun-13 19:33N 37°39' E 120°18'0 0.0
2016-Jun-13 18:21N 37°39' E 120°18'0 0.0
2016-Jun-13 15:33N 37°39' E 120°18'0 0.0
2016-Jun-13 14:30N 37°39' E 120°18'0 0.0
2016-Jun-13 13:27N 37°39' E 120°18'0 0.0
2016-Jun-13 12:18N 37°39' E 120°18'0 0.0
2016-Jun-13 11:21N 37°39' E 120°18'0 0.0
2016-Jun-13 10:33N 37°39' E 120°18'0 0.0
2016-Jun-13 09:30N 37°39' E 120°18'0 0.0
2016-Jun-13 08:18N 37°39' E 120°18'0 0.0
2016-Jun-13 07:21N 37°39' E 120°18'0 0.0
2016-Jun-13 06:30N 37°39' E 120°18'0 0.0
2016-Jun-13 05:33N 37°39' E 120°18'0 0.0
2016-Jun-13 04:33N 37°39' E 120°18'0 0.0
2016-Jun-13 03:33N 37°39' E 120°18'0 0.0
2016-Jun-13 02:33N 37°39' E 120°18'0 0.0
2016-Jun-13 01:30N 37°39' E 120°18'0 0.0
2016-Jun-13 00:33N 37°39' E 120°18'0 0.0
2016-Jun-12 23:30N 37°39' E 120°18'0 0.0
2016-Jun-12 22:27N 37°39' E 120°18'0 0.0
2016-Jun-12 21:30N 37°39' E 120°18'0 0.0
2016-Jun-12 20:33N 37°39' E 120°18'  

Dump ship's entire track history